Time;durP1;ratioP1;P1;durP2;ratioP2;P2;SDS_P1;SDS_P2;PMS_P1;PMS_P2;Temp;Humidity;BMP_temperature;BMP_pressure;BME280_temperature;BME280_humidity;BME280_pressure;Samples;Min_cycle;Max_cycle;Signal;HPM_P1;HPM_P2
2022/07/16 00:01:23;;;;;;;7.93;3.13;;;18.20;1.00;;;;;;5093755;28;20324;-68
2022/07/16 00:04:02;;;;;;;11.63;5.33;;;18.20;1.00;;;;;;5093156;28;20181;-68
2022/07/16 00:06:28;;;;;;;3.30;3.00;;;18.20;99.90;;;;;;5093498;28;20252;-68
2022/07/16 00:08:54;;;;;;;8.57;4.47;;;18.20;1.00;;;;;;5093318;28;20167;-68
2022/07/16 00:11:21;;;;;;;12.53;5.73;;;18.20;1.00;;;;;;5093610;28;20182;-67
2022/07/16 00:13:47;;;;;;;7.87;4.60;;;18.10;1.00;;;;;;5093251;28;20224;-68
2022/07/16 00:16:13;;;;;;;9.23;4.20;;;18.00;1.00;;;;;;5093430;28;20619;-67
2022/07/16 00:21:24;;;;;;;5.87;3.97;;;18.00;1.00;;;;;;5093502;28;20174;-68
2022/07/16 00:23:50;;;;;;;5.27;3.20;;;18.00;1.00;;;;;;5093263;28;20168;-69
2022/07/16 00:26:16;;;;;;;4.90;2.93;;;17.90;1.00;;;;;;5093185;28;20254;-68
2022/07/16 00:28:41;;;;;;;6.60;3.50;;;17.90;1.00;;;;;;5093205;28;20222;-68
2022/07/16 00:31:07;;;;;;;5.17;2.90;;;17.90;1.00;;;;;;5093317;28;20160;-68
2022/07/16 00:33:33;;;;;;;5.97;3.13;;;17.80;1.00;;;;;;5093041;28;20222;-69
2022/07/16 00:35:58;;;;;;;4.57;3.10;;;17.80;1.00;;;;;;5091807;28;20511;-68
2022/07/16 00:38:24;;;;;;;6.43;3.97;;;17.80;1.00;;;;;;5093048;28;20635;-69
2022/07/16 00:40:50;;;;;;;4.43;3.60;;;17.80;1.00;;;;;;5093337;28;20175;-69
2022/07/16 00:43:16;;;;;;;5.20;3.40;;;17.70;1.00;;;;;;5093043;28;20209;-69
2022/07/16 00:45:42;;;;;;;3.87;3.30;;;17.80;1.00;;;;;;5092917;28;20184;-68
2022/07/16 00:48:08;;;;;;;4.67;3.10;;;17.70;1.00;;;;;;5092757;28;20212;-68
2022/07/16 00:50:36;;;;;;;3.87;3.30;;;17.80;1.00;;;;;;5093046;28;20183;-68
2022/07/16 00:53:03;;;;;;;7.20;4.17;;;17.70;1.00;;;;;;5092906;28;20172;-68
2022/07/16 00:55:29;;;;;;;5.33;4.60;;;17.60;1.00;;;;;;5092819;28;20184;-67
2022/07/16 00:57:56;;;;;;;4.77;4.27;;;17.60;1.00;;;;;;5074880;28;20241;-67
2022/07/16 01:00:22;;;;;;;7.77;3.87;;;17.50;1.00;;;;;;5093147;28;20199;-67
2022/07/16 01:02:48;;;;;;;10.33;4.20;;;17.40;1.00;;;;;;5092663;28;20244;-67
2022/07/16 01:05:14;;;;;;;6.17;4.00;;;17.40;1.00;;;;;;5092990;28;20225;-67
2022/07/16 01:07:40;;;;;;;3.87;3.37;;;17.40;1.00;;;;;;5092796;28;20613;-67
2022/07/16 01:10:07;;;;;;;4.40;3.53;;;17.30;1.00;;;;;;5092922;28;20176;-68
2022/07/16 01:12:33;;;;;;;4.83;3.10;;;17.30;1.00;;;;;;5092455;28;20219;-67
2022/07/16 01:14:58;;;;;;;6.30;4.20;;;17.30;1.00;;;;;;5092961;28;20179;-69
2022/07/16 01:17:24;;;;;;;5.90;3.50;;;17.30;1.00;;;;;;5092433;28;20202;-68
2022/07/16 01:19:50;;;;;;;9.63;4.10;;;17.30;1.00;;;;;;5091599;28;20214;-68
2022/07/16 01:22:20;;;;;;;8.10;4.43;;;17.30;1.00;;;;;;5092824;28;20213;-67
2022/07/16 01:24:47;;;;;;;3.90;3.27;;;17.40;1.00;;;;;;5092629;28;20266;-67
2022/07/16 01:27:13;;;;;;;7.83;3.80;;;17.30;1.00;;;;;;5092658;28;20222;-67
2022/07/16 01:29:38;;;;;;;5.53;3.33;;;17.30;1.00;;;;;;5091454;28;20176;-67
2022/07/16 01:32:04;;;;;;;3.77;3.10;;;17.20;1.00;;;;;;5095045;28;20534;-67
2022/07/16 01:34:31;;;;;;;7.70;5.53;;;17.20;1.00;;;;;;5095269;28;20228;-68
2022/07/16 01:37:15;;;;;;;11.07;4.20;;;17.20;1.00;;;;;;5096313;28;20168;-67
2022/07/16 01:39:41;;;;;;;3.70;3.07;;;17.10;1.00;;;;;;5096125;28;20187;-67
2022/07/16 01:42:08;;;;;;;5.93;3.67;;;17.10;1.00;;;;;;5096033;28;20685;-67
2022/07/16 01:44:35;;;;;;;5.13;3.10;;;17.10;1.00;;;;;;5095825;28;20702;-67
2022/07/16 01:47:03;;;;;;;5.73;3.20;;;17.10;1.00;;;;;;5095999;28;20210;-67
2022/07/16 01:49:36;;;;;;;5.60;4.27;;;17.10;1.00;;;;;;5096117;28;20259;-67
2022/07/16 01:52:16;;;;;;;6.70;3.40;;;17.10;1.00;;;;;;5095838;28;20191;-67
2022/07/16 01:54:44;;;;;;;5.80;3.30;;;17.20;1.00;;;;;;5096020;28;20213;-67
2022/07/16 01:57:10;;;;;;;8.20;2.80;;;17.10;1.00;;;;;;5094418;28;20536;-69
2022/07/16 01:59:37;;;;;;;4.37;3.00;;;17.00;1.00;;;;;;5095686;28;20164;-67
2022/07/16 02:02:02;;;;;;;4.83;3.77;;;17.00;1.00;;;;;;5095788;28;20182;-67
2022/07/16 02:04:28;;;;;;;5.50;3.00;;;17.00;1.00;;;;;;5095602;28;20176;-68
2022/07/16 02:06:53;;;;;;;6.57;3.30;;;17.00;1.00;;;;;;5095472;28;20563;-68
2022/07/16 02:09:19;;;;;;;4.17;3.17;;;17.00;1.00;;;;;;5095837;28;20168;-68
2022/07/16 02:11:45;;;;;;;3.73;3.43;;;17.00;1.00;;;;;;5095345;28;20254;-68
2022/07/16 02:14:10;;;;;;;7.27;4.67;;;16.90;1.00;;;;;;5095357;28;20172;-67
2022/07/16 02:16:36;;;;;;;5.47;3.33;;;17.00;1.00;;;;;;5095552;28;20233;-68
2022/07/16 02:19:02;;;;;;;6.53;3.20;;;16.90;1.00;;;;;;5095459;28;20174;-67
2022/07/16 02:21:27;;;;;;;4.40;3.00;;;16.90;1.00;;;;;;5095218;28;20176;-68
2022/07/16 02:23:53;;;;;;;4.43;3.10;;;16.80;1.00;;;;;;5095359;28;20685;-67
2022/07/16 02:26:18;;;;;;;4.20;2.70;;;16.80;1.00;;;;;;5095375;28;20184;-67
2022/07/16 02:28:44;;;;;;;5.60;4.30;;;16.80;1.00;;;;;;5094837;28;20225;-68
2022/07/16 02:31:09;;;;;;;5.67;3.43;;;16.80;1.00;;;;;;5094038;28;20172;-67
2022/07/16 02:33:35;;;;;;;4.20;3.63;;;16.70;1.00;;;;;;5095221;28;20194;-67
2022/07/16 02:36:01;;;;;;;4.93;4.47;;;16.70;1.00;;;;;;5094957;28;20168;-67
2022/07/16 02:38:26;;;;;;;10.43;5.27;;;16.70;1.00;;;;;;5093857;28;20543;-67
2022/07/16 02:40:52;;;;;;;4.97;2.83;;;16.70;1.00;;;;;;5095151;28;20186;-67
2022/07/16 02:43:18;;;;;;;4.87;3.20;;;16.70;1.00;;;;;;5094176;28;20199;-67
2022/07/16 02:45:43;;;;;;;8.80;3.57;;;16.70;1.00;;;;;;5094961;28;20176;-67
2022/07/16 02:48:10;;;;;;;6.00;3.47;;;16.70;1.00;;;;;;5094960;28;20559;-67
2022/07/16 02:50:36;;;;;;;5.67;3.40;;;16.60;1.00;;;;;;5094956;28;20179;-67
2022/07/16 02:53:02;;;;;;;4.37;3.30;;;16.60;1.00;;;;;;5094734;28;20171;-67
2022/07/16 02:55:28;;;;;;;6.17;3.33;;;16.50;1.00;;;;;;5094788;28;20182;-68
2022/07/16 02:57:54;;;;;;;4.67;3.70;;;16.40;1.00;;;;;;5094335;28;20175;-67
2022/07/16 03:00:20;;;;;;;4.60;3.40;;;16.40;1.00;;;;;;5094818;28;20624;-67
2022/07/16 03:02:46;;;;;;;5.93;3.70;;;16.40;1.00;;;;;;5094724;28;20179;-68
2022/07/16 03:05:12;;;;;;;4.00;3.70;;;16.40;1.00;;;;;;5094447;28;20179;-67
2022/07/16 03:07:38;;;;;;;4.90;3.67;;;16.40;1.00;;;;;;5094451;28;20667;-67
2022/07/16 03:10:05;;;;;;;4.20;3.77;;;16.40;1.00;;;;;;5094438;28;20217;-68
2022/07/16 03:12:30;;;;;;;5.80;3.97;;;16.40;1.00;;;;;;5093986;28;20280;-68
2022/07/16 03:14:57;;;;;;;3.90;3.50;;;16.30;1.00;;;;;;5093907;28;20632;-67
2022/07/16 03:17:23;;;;;;;4.30;3.30;;;16.30;1.00;;;;;;5094287;28;20176;-68
2022/07/16 03:19:48;;;;;;;7.03;4.60;;;16.20;1.00;;;;;;5094299;28;20172;-68
2022/07/16 03:22:16;;;;;;;4.57;4.00;;;16.20;1.00;;;;;;5094209;28;20176;-68
2022/07/16 03:24:41;;;;;;;7.17;5.30;;;16.20;1.00;;;;;;5094222;28;20649;-68
2022/07/16 03:27:07;;;;;;;5.90;3.80;;;16.20;1.00;;;;;;5093665;28;20242;-68
2022/07/16 03:29:33;;;;;;;4.93;3.03;;;16.30;1.00;;;;;;5094116;28;20608;-68
2022/07/16 03:31:58;;;;;;;6.23;3.97;;;16.30;1.00;;;;;;5093919;28;20557;-68
2022/07/16 03:34:24;;;;;;;8.07;4.97;;;16.20;1.00;;;;;;5093786;28;20507;-67
2022/07/16 03:36:49;;;;;;;5.87;4.50;;;16.30;1.00;;;;;;5093900;28;20574;-68
2022/07/16 03:39:15;;;;;;;5.17;3.47;;;16.30;1.00;;;;;;5093779;28;20195;-68
2022/07/16 03:41:41;;;;;;;6.40;3.60;;;16.20;1.00;;;;;;5093513;28;20556;-67
2022/07/16 03:44:08;;;;;;;5.57;4.00;;;16.30;1.00;;;;;;5092838;28;20172;-67
2022/07/16 03:46:35;;;;;;;5.70;3.40;;;16.30;1.00;;;;;;5093561;28;20598;-67
2022/07/16 03:49:01;;;;;;;5.47;3.77;;;16.30;1.00;;;;;;5093773;28;20243;-68
2022/07/16 03:51:27;;;;;;;5.03;4.00;;;16.30;1.00;;;;;;5093903;28;20221;-68
2022/07/16 03:53:53;;;;;;;5.77;4.30;;;16.30;1.00;;;;;;5092798;28;20195;-68
2022/07/16 03:56:19;;;;;;;6.77;3.97;;;16.30;1.00;;;;;;5093263;28;20202;-68
2022/07/16 03:58:45;;;;;;;5.00;3.33;;;16.30;1.00;;;;;;5093614;28;20179;-69
2022/07/16 04:01:10;;;;;;;6.23;3.30;;;16.30;1.00;;;;;;5093671;28;20172;-67
2022/07/16 04:03:37;;;;;;;5.67;3.70;;;16.30;1.00;;;;;;5093515;28;20646;-68
2022/07/16 04:06:03;;;;;;;4.10;3.70;;;16.30;1.00;;;;;;5093317;28;20225;-67
2022/07/16 04:08:29;;;;;;;7.73;4.43;;;16.40;1.00;;;;;;5093048;28;20219;-67
2022/07/16 04:10:55;;;;;;;4.43;3.60;;;16.50;1.00;;;;;;5093059;28;20171;-67
2022/07/16 04:13:21;;;;;;;3.53;3.23;;;16.70;1.00;;;;;;5093050;28;20231;-68
2022/07/16 04:15:47;;;;;;;7.70;4.07;;;17.00;1.00;;;;;;5093053;28;20187;-68
2022/07/16 04:18:13;;;;;;;6.10;3.60;;;17.30;1.00;;;;;;5093016;28;20579;-67
2022/07/16 04:20:38;;;;;;;3.50;3.20;;;17.70;1.00;;;;;;5093140;28;20179;-67
2022/07/16 04:23:04;;;;;;;5.90;3.80;;;18.10;99.90;;;;;;5093151;28;20174;-67
2022/07/16 04:25:30;;;;;;;6.67;3.77;;;18.50;99.90;;;;;;5092659;28;20225;-68
2022/07/16 04:27:55;;;;;;;8.93;4.60;;;19.20;75.20;;;;;;5093221;28;20251;-68
2022/07/16 04:30:21;;;;;;;8.45;4.97;;;19.70;99.90;;;;;;5093225;28;20176;-69
2022/07/16 04:32:47;;;;;;;4.53;3.53;;;20.10;99.90;;;;;;5093151;28;20180;-68
2022/07/16 04:35:13;;;;;;;3.78;3.25;;;20.50;1.00;;;;;;5093045;28;20176;-69
2022/07/16 04:37:39;;;;;;;5.22;3.50;;;20.90;99.90;;;;;;5092905;28;20180;-68
2022/07/16 04:40:07;;;;;;;5.75;4.03;;;21.40;1.00;;;;;;5092637;28;20168;-68
2022/07/16 04:42:33;;;;;;;6.82;6.13;;;21.80;99.90;;;;;;5093036;28;20286;-68
2022/07/16 04:44:59;;;;;;;4.50;3.35;;;21.80;99.90;;;;;;5092943;28;20172;-68
2022/07/16 04:47:25;;;;;;;6.10;3.88;;;22.20;26.30;;;;;;5092993;28;20254;-68
2022/07/16 04:49:50;;;;;;;5.85;3.72;;;22.80;1.00;;;;;;5092667;28;20188;-69
2022/07/16 04:52:16;;;;;;;7.18;3.78;;;23.40;1.00;;;;;;5093014;28;20175;-69
2022/07/16 04:54:42;;;;;;;3.45;3.15;;;23.50;1.00;;;;;;5092666;28;20631;-69
2022/07/16 04:57:07;;;;;;;6.82;3.85;;;23.30;1.00;;;;;;5092702;28;20172;-69
2022/07/16 04:59:33;;;;;;;4.65;3.63;;;22.60;1.00;;;;;;5092425;28;20251;-68
2022/07/16 05:02:56;;;;;;;9.00;4.97;;;22.20;1.00;;;;;;5092797;28;20670;-68
2022/07/16 05:04:44;;;;;;;6.07;3.78;;;21.90;1.00;;;;;;5093358;28;20164;-68
2022/07/16 05:07:10;;;;;;;6.60;4.00;;;21.60;1.00;;;;;;5096539;28;20549;-68
2022/07/16 05:09:35;;;;;;;4.93;4.00;;;21.20;99.90;;;;;;5096308;28;20196;-67
2022/07/16 05:12:01;;;;;;;4.13;3.78;;;20.90;1.00;;;;;;5096589;28;20678;-67
2022/07/16 05:14:26;;;;;;;6.53;4.03;;;20.60;24.20;;;;;;5096495;28;20631;-68
2022/07/16 05:16:54;;;;;;;6.43;4.35;;;20.60;99.90;;;;;;5096327;28;20180;-68
2022/07/16 05:19:20;;;;;;;5.30;4.80;;;20.30;1.00;;;;;;5096373;28;20172;-68
2022/07/16 05:21:45;;;;;;;9.80;4.55;;;20.30;99.90;;;;;;5095643;28;20176;-68
2022/07/16 05:24:11;;;;;;;5.57;4.20;;;20.20;1.00;;;;;;5096472;28;20164;-68
2022/07/16 05:26:36;;;;;;;6.88;4.47;;;20.30;99.90;;;;;;5096188;28;20557;-67
2022/07/16 05:29:02;;;;;;;4.55;4.18;;;20.50;1.00;;;;;;5096198;28;20183;-68
2022/07/16 05:31:28;;;;;;;8.95;4.30;;;21.00;1.00;;;;;;5096411;28;20168;-68
2022/07/16 05:33:53;;;;;;;4.72;4.07;;;21.30;1.00;;;;;;5096239;28;20263;-68
2022/07/16 05:36:19;;;;;;;6.10;3.92;;;21.70;1.00;;;;;;5094572;28;20195;-69
2022/07/16 05:38:44;;;;;;;5.82;4.50;;;22.40;98.10;;;;;;5095875;28;20253;-70
2022/07/16 05:41:10;;;;;;;21.17;15.00;;;23.40;1.00;;;;;;5096033;28;20527;-70
2022/07/16 05:43:36;;;;;;;4.60;4.20;;;25.20;99.90;;;;;;5095909;28;20195;-70
2022/07/16 05:46:02;;;;;;;9.27;4.40;;;26.40;99.90;;;;;;5095578;28;20628;-70
2022/07/16 05:48:28;;;;;;;5.80;4.68;;;26.10;99.90;;;;;;5095616;28;20660;-69
2022/07/16 05:50:54;;;;;;;5.80;4.07;;;26.20;99.90;;;;;;5094110;28;20650;-69
2022/07/16 05:53:20;;;;;;;5.80;3.95;;;26.30;99.90;;;;;;5095796;28;20180;-70
2022/07/16 05:55:45;;;;;;;7.75;4.13;;;26.50;99.90;;;;;;5095491;28;20171;-70
2022/07/16 05:58:11;;;;;;;5.00;4.28;;;27.00;99.90;;;;;;5095265;28;20176;-72
2022/07/16 06:00:36;;;;;;;4.32;3.63;;;27.90;99.90;;;;;;5095288;28;20172;-72
2022/07/16 06:03:02;;;;;;;5.28;4.07;;;28.90;99.90;;;;;;5095555;28;20164;-70
2022/07/16 06:05:28;;;;;;;4.60;4.18;;;29.60;99.90;;;;;;5095025;28;20678;-71
2022/07/16 06:07:53;;;;;;;4.05;3.65;;;29.90;99.90;;;;;;5095710;28;20207;-72
2022/07/16 06:10:19;;;;;;;6.25;3.40;;;30.30;99.90;;;;;;5095357;28;20180;-70
2022/07/16 06:12:45;;;;;;;3.90;3.60;;;31.40;99.90;;;;;;5095033;28;20231;-72
2022/07/16 06:15:13;;;;;;;6.75;3.90;;;31.30;99.90;;;;;;5095402;28;20210;-70
2022/07/16 06:17:39;;;;;;;10.20;3.80;;;32.20;99.90;;;;;;5094123;28;20184;-70
2022/07/16 06:20:06;;;;;;;5.72;3.50;;;32.80;99.90;;;;;;5095086;28;20174;-70
2022/07/16 06:22:32;;;;;;;3.83;3.25;;;33.30;99.90;;;;;;5095038;28;20194;-71
2022/07/16 06:24:58;;;;;;;8.30;3.85;;;34.10;94.30;;;;;;5095357;28;20627;-70
2022/07/16 06:27:23;;;;;;;4.03;3.00;;;33.90;84.40;;;;;;5095114;28;20216;-71
2022/07/16 06:29:49;;;;;;;3.22;2.53;;;33.80;84.10;;;;;;5095239;28;20211;-72
2022/07/16 06:32:14;;;;;;;2.53;2.33;;;34.00;84.20;;;;;;5094707;28;20171;-71
2022/07/16 06:34:40;;;;;;;3.88;2.35;;;34.70;77.70;;;;;;5094466;28;20176;-70
2022/07/16 06:37:06;;;;;;;2.78;2.40;;;35.00;71.30;;;;;;5095088;28;20171;-71
2022/07/16 06:39:32;;;;;;;2.88;2.03;;;35.30;64.30;;;;;;5095012;28;20738;-71
2022/07/16 06:41:58;;;;;;;4.97;2.05;;;35.40;61.60;;;;;;5094382;28;20681;-71
2022/07/16 06:44:24;;;;;;;3.03;1.90;;;35.90;55.20;;;;;;5094796;28;20203;-71
2022/07/16 06:46:49;;;;;;;4.03;1.92;;;35.90;50.00;;;;;;5094561;28;20295;-73
2022/07/16 06:49:15;;;;;;;4.00;1.88;;;36.50;44.20;;;;;;5094360;28;20164;-71
2022/07/16 06:51:41;;;;;;;3.30;2.00;;;35.30;44.30;;;;;;5094746;28;20175;-72
2022/07/16 06:54:06;;;;;;;4.13;2.10;;;34.70;45.20;;;;;;5094473;28;20676;-73
2022/07/16 06:56:32;;;;;;;3.50;2.10;;;33.50;52.80;;;;;;5094102;28;20176;-72
2022/07/16 06:58:58;;;;;;;2.97;1.70;;;32.70;66.40;;;;;;5094094;28;20168;-72
2022/07/16 07:01:23;;;;;;;2.55;2.08;;;32.30;79.70;;;;;;5094335;28;20164;-71
2022/07/16 07:03:50;;;;;;;2.35;1.83;;;32.30;80.70;;;;;;5094001;28;20180;-72
2022/07/16 07:06:16;;;;;;;4.65;2.50;;;30.20;99.90;;;;;;5094060;28;20180;-71
2022/07/16 07:11:26;;;;;;;3.85;2.33;;;27.80;99.90;;;;;;5094403;28;20225;-73
2022/07/16 07:13:52;;;;;;;4.45;2.70;;;27.90;99.90;;;;;;5093832;28;20220;-72
2022/07/16 07:16:17;;;;;;;3.95;3.30;;;28.10;99.90;;;;;;5092748;28;20176;-71
2022/07/16 07:18:44;;;;;;;4.68;3.60;;;27.10;1.00;;;;;;5094045;28;20217;-71
2022/07/16 07:21:10;;;;;;;5.90;4.53;;;27.50;1.00;;;;;;5093961;28;20172;-71
2022/07/16 07:23:35;;;;;;;4.32;3.30;;;28.40;99.90;;;;;;5093921;28;20261;-71
2022/07/16 07:26:01;;;;;;;3.60;3.30;;;28.50;99.90;;;;;;5093876;28;20203;-71
2022/07/16 07:28:28;;;;;;;3.88;3.45;;;28.60;99.90;;;;;;5093664;28;20720;-71
2022/07/16 07:30:54;;;;;;;3.67;3.38;;;26.90;1.00;;;;;;5093819;28;20184;-70
2022/07/16 07:33:20;;;;;;;3.55;3.25;;;25.70;1.00;;;;;;5093572;28;20191;-71
2022/07/16 07:35:46;;;;;;;4.70;3.20;;;25.30;99.90;;;;;;5093430;28;20623;-72
2022/07/16 07:38:12;;;;;;;4.03;3.10;;;25.60;1.00;;;;;;5093430;28;20174;-71
2022/07/16 07:40:37;;;;;;;3.17;2.88;;;27.30;1.00;;;;;;5093747;28;20167;-71
2022/07/16 07:43:04;;;;;;;2.83;2.65;;;28.10;1.00;;;;;;5093587;28;20669;-71
2022/07/16 07:45:30;;;;;;;4.20;3.40;;;29.40;99.90;;;;;;5093492;28;20171;-71
2022/07/16 07:47:55;;;;;;;3.08;2.78;;;29.80;99.90;;;;;;5092768;28;20637;-72
2022/07/16 07:50:22;;;;;;;3.60;3.40;;;30.20;99.90;;;;;;5093259;28;20259;-72
2022/07/16 07:52:47;;;;;;;3.22;2.88;;;30.10;99.90;;;;;;5093684;28;20259;-71
2022/07/16 07:55:13;;;;;;;3.65;2.90;;;30.10;99.90;;;;;;5093597;28;20266;-71
2022/07/16 07:57:38;;;;;;;3.42;3.00;;;30.10;99.90;;;;;;5093165;28;20203;-71
2022/07/16 08:00:07;;;;;;;3.75;2.80;;;30.80;99.90;;;;;;5092551;28;20618;-71
2022/07/16 08:02:33;;;;;;;4.25;3.05;;;31.70;99.90;;;;;;5093166;28;20475;-71
2022/07/16 08:04:59;;;;;;;3.85;3.53;;;32.50;99.90;;;;;;5092942;28;20175;-72
2022/07/16 08:07:25;;;;;;;3.50;2.40;;;33.40;99.90;;;;;;5092897;28;20203;-74
2022/07/16 08:09:50;;;;;;;3.17;2.88;;;34.30;99.90;;;;;;5093030;28;20168;-75
2022/07/16 08:12:16;;;;;;;2.63;2.42;;;34.40;98.50;;;;;;5093136;28;20212;-74
2022/07/16 08:14:41;;;;;;;2.70;2.47;;;33.70;95.80;;;;;;5092897;28;20247;-72
2022/07/16 08:17:08;;;;;;;2.78;2.55;;;32.30;96.80;;;;;;5091509;28;20294;-75
2022/07/16 08:19:34;;;;;;;3.83;2.50;;;32.00;99.90;;;;;;5092952;28;20202;-75
2022/07/16 08:22:01;;;;;;;3.80;2.08;;;33.20;99.90;;;;;;5091883;28;20195;-74
2022/07/16 08:27:11;;;;;;;2.53;2.10;;;34.10;73.60;;;;;;5092900;28;20686;-73
2022/07/16 08:29:37;;;;;;;4.45;2.28;;;31.80;86.20;;;;;;5092768;28;20172;-74
2022/07/16 08:32:04;;;;;;;2.10;1.90;;;30.30;99.90;;;;;;5092634;28;20190;-74
2022/07/16 08:34:29;;;;;;;1.85;1.52;;;30.40;99.90;;;;;;5092911;28;20164;-72
2022/07/16 08:36:55;;;;;;;2.90;1.70;;;31.50;99.90;;;;;;5093011;28;20176;-72
2022/07/16 08:39:21;;;;;;;1.90;1.58;;;29.90;99.90;;;;;;5092847;28;20686;-73
2022/07/16 08:41:47;;;;;;;2.47;1.52;;;29.40;99.90;;;;;;5096844;28;20171;-73
2022/07/16 08:44:13;;;;;;;2.72;1.42;;;29.50;99.90;;;;;;5097281;28;20172;-74
2022/07/16 08:46:39;;;;;;;2.80;1.50;;;29.40;99.90;;;;;;5096204;28;20203;-75
2022/07/16 08:49:05;;;;;;;2.33;1.30;;;28.70;99.90;;;;;;5095270;28;20237;-74
2022/07/16 08:51:33;;;;;;;2.42;1.50;;;30.00;99.90;;;;;;5097094;28;20168;-72
2022/07/16 08:54:13;;;;;;;2.35;1.23;;;29.60;99.90;;;;;;5096502;28;20179;-74
2022/07/16 08:56:43;;;;;;;2.00;1.30;;;29.20;99.90;;;;;;5096989;28;20225;-71
2022/07/16 08:59:09;;;;;;;1.50;1.40;;;28.70;99.90;;;;;;5096303;28;20172;-73
2022/07/16 09:01:35;;;;;;;1.33;1.17;;;29.70;99.90;;;;;;5095948;28;20206;-72
2022/07/16 09:04:01;;;;;;;2.97;1.10;;;31.30;99.90;;;;;;5096621;28;20176;-71
2022/07/16 09:06:27;;;;;;;1.65;1.52;;;31.30;99.90;;;;;;5095899;28;20218;-73
2022/07/16 09:08:53;;;;;;;1.92;1.52;;;31.10;99.90;;;;;;5096280;28;20647;-75
2022/07/16 09:11:28;;;;;;;1.42;1.23;;;31.20;99.90;;;;;;5096047;28;20629;-73
2022/07/16 09:14:09;;;;;;;2.63;1.60;;;31.40;99.40;;;;;;5095968;28;20702;-74
2022/07/16 09:16:38;;;;;;;2.60;1.60;;;31.30;99.90;;;;;;5096464;28;20171;-75
2022/07/16 09:19:05;;;;;;;1.50;1.40;;;31.30;98.10;;;;;;5096666;28;20179;-73
2022/07/16 09:21:30;;;;;;;2.40;1.60;;;32.00;95.70;;;;;;5095835;28;20172;-74
2022/07/16 09:23:56;;;;;;;2.38;1.30;;;32.60;88.50;;;;;;5096395;28;20518;-73
2022/07/16 09:26:25;;;;;;;1.50;1.40;;;33.40;76.40;;;;;;5094748;28;20210;-72
2022/07/16 09:28:51;;;;;;;2.20;1.50;;;33.00;66.70;;;;;;5095740;28;20187;-73
2022/07/16 09:31:42;;;;;;;1.88;1.30;;;31.50;74.90;;;;;;5096240;28;20213;-76
2022/07/16 09:34:08;;;;;;;1.63;1.50;;;30.80;86.90;;;;;;5096342;28;20168;-73
2022/07/16 09:36:35;;;;;;;1.50;1.40;;;30.60;92.20;;;;;;5096144;28;20172;-74
2022/07/16 09:39:01;;;;;;;2.17;1.80;;;29.70;98.60;;;;;;5095911;28;20179;-73
2022/07/16 09:41:27;;;;;;;2.83;1.63;;;29.30;99.90;;;;;;5095732;28;20171;-74
2022/07/16 09:43:53;;;;;;;1.80;1.52;;;28.90;99.90;;;;;;5095904;28;20262;-73
2022/07/16 09:46:23;;;;;;;1.50;1.40;;;30.00;99.90;;;;;;5095583;28;20561;-75
2022/07/16 09:48:50;;;;;;;1.60;1.50;;;31.00;96.20;;;;;;5096125;28;20283;-74
2022/07/16 09:51:26;;;;;;;1.52;1.42;;;31.30;93.50;;;;;;5093666;28;20175;-73
2022/07/16 09:53:54;;;;;;;1.48;1.38;;;31.10;94.50;;;;;;5095828;28;20167;-71
2022/07/16 09:56:21;;;;;;;1.48;1.30;;;30.60;96.20;;;;;;5095217;28;20187;-73
2022/07/16 09:58:52;;;;;;;2.00;1.60;;;29.50;99.60;;;;;;5094833;28;20172;-74
2022/07/16 10:01:19;;;;;;;1.83;1.35;;;29.30;99.90;;;;;;5095608;28;20175;-75
2022/07/16 10:03:47;;;;;;;3.10;1.10;;;30.20;99.90;;;;;;5095537;28;20168;-74
2022/07/16 10:06:12;;;;;;;1.52;1.13;;;31.10;93.00;;;;;;5095245;28;20195;-74
2022/07/16 10:08:40;;;;;;;1.40;0.82;;;32.50;72.80;;;;;;5095448;28;20250;-73
2022/07/16 10:11:07;;;;;;;1.73;0.90;;;33.20;53.20;;;;;;5095233;28;20665;-72
2022/07/16 10:13:34;;;;;;;2.35;1.30;;;31.70;49.20;;;;;;5094764;28;20281;-72
2022/07/16 10:16:00;;;;;;;1.75;1.08;;;30.70;56.90;;;;;;5095481;28;20183;-75
2022/07/16 10:18:36;;;;;;;3.20;0.90;;;31.40;57.30;;;;;;5094626;28;20172;-74
2022/07/16 10:21:15;;;;;;;1.27;1.00;;;31.50;51.40;;;;;;5095197;28;20167;-74
2022/07/16 10:23:47;;;;;;;1.10;1.00;;;31.50;51.60;;;;;;5095175;28;20178;-74
2022/07/16 10:26:21;;;;;;;0.95;0.95;;;31.30;49.00;;;;;;5094819;28;20179;-73
2022/07/16 10:28:52;;;;;;;1.70;0.98;;;30.80;45.70;;;;;;5093364;28;20591;-73
2022/07/16 10:31:40;;;;;;;1.45;0.90;;;31.70;41.00;;;;;;5094479;28;20611;-74
2022/07/16 10:34:14;;;;;;;0.77;0.75;;;30.10;41.00;;;;;;5095265;28;20167;-73
2022/07/16 10:36:54;;;;;;;0.80;0.77;;;30.80;39.70;;;;;;5094655;28;20630;-73
2022/07/16 10:39:23;;;;;;;1.10;0.90;;;29.70;42.80;;;;;;5094563;28;20233;-72
2022/07/16 10:41:53;;;;;;;1.40;1.30;;;29.80;45.20;;;;;;5093949;28;20305;-72
2022/07/16 10:44:20;;;;;;;1.30;1.20;;;29.50;48.90;;;;;;5094778;28;20175;-73
2022/07/16 10:47:06;;;;;;;0.85;0.85;;;27.50;58.90;;;;;;5094226;28;20708;-74
2022/07/16 10:49:32;;;;;;;2.28;1.35;;;27.90;66.70;;;;;;5094357;28;20580;-72
2022/07/16 10:52:09;;;;;;;2.83;1.20;;;28.00;65.30;;;;;;5094093;28;20176;-73
2022/07/16 10:54:39;;;;;;;2.60;1.40;;;28.90;65.30;;;;;;5094580;28;20639;-73
2022/07/16 10:57:11;;;;;;;1.17;1.15;;;29.40;62.00;;;;;;5094070;28;20218;-73
2022/07/16 10:59:39;;;;;;;1.08;0.90;;;28.30;65.60;;;;;;5094433;28;20195;-72
2022/07/16 11:02:16;;;;;;;1.20;1.10;;;27.40;69.50;;;;;;5094348;28;20172;-72
2022/07/16 11:04:46;;;;;;;2.30;1.20;;;27.50;78.70;;;;;;5093592;28;20254;-72
2022/07/16 11:07:17;;;;;;;1.88;1.10;;;28.50;67.10;;;;;;5093733;28;20206;-73
2022/07/16 11:09:46;;;;;;;1.83;1.00;;;27.90;67.90;;;;;;5094069;28;20160;-72
2022/07/16 11:12:23;;;;;;;1.10;1.00;;;28.10;71.00;;;;;;5093530;28;20241;-74
2022/07/16 11:14:51;;;;;;;1.83;1.40;;;29.10;61.70;;;;;;5094404;28;20642;-74
2022/07/16 11:17:21;;;;;;;0.90;0.90;;;29.90;54.60;;;;;;5094089;28;20643;-72
2022/07/16 11:19:49;;;;;;;1.67;1.20;;;30.20;49.30;;;;;;5094260;28;20251;-74
2022/07/16 11:22:20;;;;;;;1.35;1.15;;;30.10;45.80;;;;;;5092164;28;20175;-74
2022/07/16 11:24:52;;;;;;;2.38;1.02;;;31.00;43.00;;;;;;5093712;28;20229;-74
2022/07/16 11:27:24;;;;;;;2.05;1.13;;;31.30;38.20;;;;;;5093670;28;20195;-75
2022/07/16 11:29:58;;;;;;;2.03;1.15;;;30.20;37.30;;;;;;5093522;28;20279;-74
2022/07/16 11:32:24;;;;;;;1.65;1.08;;;29.20;40.00;;;;;;5093666;28;20216;-73
2022/07/16 11:34:50;;;;;;;1.35;0.90;;;29.20;45.90;;;;;;5093279;28;20171;-74
2022/07/16 11:37:15;;;;;;;2.40;2.13;;;28.60;47.30;;;;;;5093855;28;20186;-71
2022/07/16 11:39:42;;;;;;;1.75;1.45;;;28.10;48.30;;;;;;5093227;28;20202;-72
2022/07/16 11:42:07;;;;;;;1.08;0.98;;;27.30;56.50;;;;;;5093597;28;20203;-71
2022/07/16 11:44:36;;;;;;;1.40;1.30;;;26.20;67.60;;;;;;5092982;28;20569;-71
2022/07/16 11:47:07;;;;;;;1.40;1.30;;;25.40;83.70;;;;;;5093323;28;20218;-71
2022/07/16 11:49:36;;;;;;;2.35;1.25;;;25.80;93.60;;;;;;5075330;28;20697;-71
2022/07/16 11:52:09;;;;;;;1.52;1.00;;;26.70;90.90;;;;;;5092467;28;20175;-71
2022/07/16 11:54:37;;;;;;;2.78;1.20;;;26.30;88.50;;;;;;5093313;28;20163;-71
2022/07/16 11:57:03;;;;;;;2.78;1.40;;;25.70;93.00;;;;;;5092757;28;20182;-71
2022/07/16 11:59:32;;;;;;;2.17;1.35;;;26.10;96.50;;;;;;5093324;28;20199;-71
2022/07/16 12:02:06;;;;;;;1.42;1.10;;;26.70;93.40;;;;;;5093435;28;20160;-71
2022/07/16 12:04:43;;;;;;;3.53;1.58;;;26.60;91.60;;;;;;5093514;28;20172;-71
2022/07/16 12:07:30;;;;;;;1.65;1.42;;;26.70;93.00;;;;;;5092595;28;20203;-71
2022/07/16 12:10:03;;;;;;;2.78;1.42;;;27.10;91.30;;;;;;5092365;28;20180;-71
2022/07/16 12:12:31;;;;;;;1.40;1.30;;;27.30;88.30;;;;;;5091906;28;20220;-73
2022/07/16 12:15:02;;;;;;;1.92;1.52;;;27.60;85.60;;;;;;5092843;28;20164;-71
2022/07/16 12:17:27;;;;;;;3.08;1.42;;;27.70;83.30;;;;;;5092720;28;20228;-72
2022/07/16 12:20:05;;;;;;;1.40;1.30;;;27.90;78.90;;;;;;5092731;28;20171;-70
2022/07/16 12:22:49;;;;;;;4.25;1.45;;;27.50;77.40;;;;;;5092346;28;20168;-70
2022/07/16 12:25:16;;;;;;;3.40;1.35;;;26.90;77.80;;;;;;5092909;28;20250;-72
2022/07/16 12:27:51;;;;;;;1.95;1.77;;;27.00;79.40;;;;;;5092400;28;20666;-71
2022/07/16 12:30:18;;;;;;;3.47;3.17;;;27.40;80.70;;;;;;5091622;28;20178;-71
2022/07/16 12:32:51;;;;;;;2.65;1.67;;;27.80;76.40;;;;;;5092818;28;20167;-70
2022/07/16 12:35:35;;;;;;;2.15;1.40;;;27.90;71.60;;;;;;5092923;28;20226;-70
2022/07/16 12:38:00;;;;;;;1.88;1.50;;;27.10;69.10;;;;;;5092387;28;20179;-71
2022/07/16 12:40:26;;;;;;;2.33;1.55;;;27.00;73.70;;;;;;5092772;28;20264;-72
2022/07/16 12:42:51;;;;;;;1.85;1.48;;;27.30;68.70;;;;;;5090538;28;20630;-72
2022/07/16 12:45:17;;;;;;;2.15;1.80;;;26.80;70.80;;;;;;5092249;28;20164;-70
2022/07/16 12:47:44;;;;;;;3.65;1.67;;;26.50;84.50;;;;;;5092738;28;20675;-72
2022/07/16 12:50:09;;;;;;;2.95;1.80;;;26.50;80.50;;;;;;5092456;28;20195;-72
2022/07/16 12:52:35;;;;;;;1.58;1.48;;;26.90;85.00;;;;;;5091115;28;20572;-71
2022/07/16 13:00:31;;;;;;;1.65;1.52;;;26.40;78.00;;;;;;5092566;28;20263;-71
2022/07/16 13:02:56;;;;;;;2.63;1.83;;;25.90;91.20;;;;;;5092543;28;20183;-70
2022/07/16 13:05:25;;;;;;;1.60;1.50;;;25.90;91.90;;;;;;5092385;28;20167;-70